Time;durP1;ratioP1;P1;durP2;ratioP2;P2;SDS_P1;SDS_P2;PMS_P1;PMS_P2;Temp;Humidity;BMP_temperature;BMP_pressure;BME280_temperature;BME280_humidity;BME280_pressure;Samples;Min_cycle;Max_cycle;Signal;HPM_P1;HPM_P2
2023/10/18 00:00:53;;;;;;;5.30;3.53;;;;;;;23.12;47.89;96335.84;5092359;28;20459;-26
2023/10/18 00:03:19;;;;;;;8.88;3.42;;;;;;;22.95;48.66;96337.97;5093297;28;20023;-27
2023/10/18 00:05:47;;;;;;;6.25;3.70;;;;;;;22.88;48.46;96339.22;5093469;28;20535;-27
2023/10/18 00:08:12;;;;;;;6.72;3.38;;;;;;;22.93;48.85;96341.22;5101111;28;20069;-26
2023/10/18 00:10:38;;;;;;;7.18;3.42;;;;;;;22.90;48.86;96342.25;5093360;28;20079;-26
2023/10/18 00:13:03;;;;;;;5.75;3.08;;;;;;;23.08;48.55;96343.69;5094168;28;20020;-27
2023/10/18 00:15:31;;;;;;;9.38;3.45;;;;;;;23.05;48.52;96347.47;5093342;28;20371;-27
2023/10/18 00:17:56;;;;;;;7.50;2.83;;;;;;;23.02;48.47;96344.94;5093473;28;20027;-27
2023/10/18 00:20:25;;;;;;;11.07;3.33;;;;;;;23.10;48.56;96346.69;5093185;28;20016;-27
2023/10/18 00:22:51;;;;;;;6.95;3.55;;;;;;;23.07;48.43;96352.47;5093300;28;20490;-26
2023/10/18 00:25:19;;;;;;;6.85;3.20;;;;;;;23.04;48.46;96356.25;5093565;28;20106;-27
2023/10/18 00:27:45;;;;;;;9.00;3.08;;;;;;;23.14;48.28;96357.47;5093355;28;20035;-27
2023/10/18 00:30:11;;;;;;;8.23;3.50;;;;;;;23.12;48.19;96352.44;5093316;28;20024;-26
2023/10/18 00:32:38;;;;;;;7.78;3.10;;;;;;;23.08;48.25;96351.97;5093717;28;20027;-27
2023/10/18 00:35:12;;;;;;;7.63;3.10;;;;;;;22.94;48.62;96355.81;5096809;28;20038;-27
2023/10/18 00:37:41;;;;;;;5.85;2.67;;;;;;;23.12;48.43;96357.25;5097066;28;20364;-27
2023/10/18 00:40:20;;;;;;;6.65;3.72;;;;;;;23.03;48.68;96355.50;5096844;28;20016;-27
2023/10/18 00:42:46;;;;;;;8.60;3.35;;;;;;;22.80;49.00;96351.34;5104587;28;20027;-26
2023/10/18 00:45:12;;;;;;;7.93;2.92;;;;;;;22.99;48.92;96346.75;5097014;28;20375;-27
2023/10/18 00:47:38;;;;;;;7.20;2.90;;;;;;;23.14;48.35;96338.84;5096648;28;20081;-28
2023/10/18 00:50:07;;;;;;;7.20;3.58;;;;;;;23.14;48.42;96332.56;5096866;28;20015;-27
2023/10/18 00:52:32;;;;;;;4.97;2.58;;;;;;;23.13;48.32;96329.03;5096322;28;20093;-26
2023/10/18 00:54:58;;;;;;;5.40;2.60;;;;;;;23.09;48.39;96331.34;5097033;28;20016;-27
2023/10/18 00:57:26;;;;;;;5.65;2.67;;;;;;;23.16;48.45;96324.50;5096646;28;20474;-28
2023/10/18 00:59:53;;;;;;;6.95;3.10;;;;;;;22.97;48.74;96335.44;5097672;28;20483;-28
2023/10/18 01:02:19;;;;;;;8.80;3.28;;;;;;;22.99;48.59;96335.69;5102289;28;20040;-28
2023/10/18 01:04:52;;;;;;;6.38;2.70;;;;;;;23.13;48.52;96336.59;5096443;28;20016;-26
2023/10/18 01:07:20;;;;;;;8.73;2.95;;;;;;;22.88;48.63;96319.88;5096426;28;20095;-28
2023/10/18 01:09:49;;;;;;;6.70;3.05;;;;;;;22.86;49.11;96324.44;5096268;28;20024;-26
2023/10/18 01:12:15;;;;;;;9.13;3.13;;;;;;;22.94;48.65;96322.63;5096951;28;20536;-28
2023/10/18 01:14:44;;;;;;;5.80;2.67;;;;;;;22.92;48.78;96317.59;5103793;28;20051;-27
2023/10/18 01:17:10;;;;;;;6.68;2.88;;;;;;;23.06;48.09;96321.31;5096220;28;20062;-27
2023/10/18 01:19:36;;;;;;;6.68;2.88;;;;;;;22.99;48.73;96332.91;5096038;28;20031;-27
2023/10/18 01:22:04;;;;;;;11.20;3.40;;;;;;;23.01;48.31;96315.78;5096255;28;20032;-27
2023/10/18 01:24:36;;;;;;;5.35;2.50;;;;;;;22.99;48.36;96327.38;5103343;28;20040;-27
2023/10/18 01:27:02;;;;;;;8.55;2.83;;;;;;;22.86;48.69;96318.91;5096249;28;20023;-27
2023/10/18 01:29:28;;;;;;;6.95;2.63;;;;;;;22.82;48.83;96324.69;5096414;28;20053;-27
2023/10/18 01:31:55;;;;;;;7.03;2.65;;;;;;;22.92;48.42;96312.06;5095585;28;20094;-28
2023/10/18 01:34:20;;;;;;;4.57;2.50;;;;;;;22.88;48.96;96313.59;5096322;28;20020;-27
2023/10/18 01:36:46;;;;;;;7.32;3.25;;;;;;;22.85;48.90;96307.09;5095770;28;20027;-27
2023/10/18 01:39:21;;;;;;;6.38;2.72;;;;;;;22.85;49.06;96306.34;5095818;28;20020;-27
2023/10/18 01:41:53;;;;;;;7.82;3.08;;;;;;;22.95;48.67;96304.03;5103169;28;20034;-27
2023/10/18 01:44:27;;;;;;;5.88;2.90;;;;;;;22.85;48.88;96298.81;5094764;28;20066;-26
2023/10/18 01:47:07;;;;;;;5.18;2.50;;;;;;;22.85;48.96;96306.34;5103866;28;20043;-27
2023/10/18 01:49:41;;;;;;;6.28;2.60;;;;;;;22.95;48.88;96293.72;5096051;28;20099;-27
2023/10/18 01:52:08;;;;;;;5.15;2.28;;;;;;;22.90;49.12;96298.00;5095354;28;20398;-26
2023/10/18 01:54:33;;;;;;;5.93;2.35;;;;;;;22.92;48.93;96291.97;5095349;28;20027;-27
2023/10/18 01:57:00;;;;;;;6.35;2.40;;;;;;;23.01;48.62;96291.66;5095132;28;20016;-27
2023/10/18 01:59:28;;;;;;;4.07;2.10;;;;;;;22.94;48.99;96289.44;5095621;28;20042;-28
2023/10/18 02:01:57;;;;;;;6.05;1.92;;;;;;;22.91;49.11;96293.22;5095867;28;20103;-27
2023/10/18 02:04:25;;;;;;;3.72;1.70;;;;;;;22.85;49.52;96289.75;5095418;28;20051;-26
2023/10/18 02:06:57;;;;;;;4.18;1.75;;;;;;;22.83;49.72;96295.78;5102529;28;20077;-27
2023/10/18 02:09:26;;;;;;;5.05;2.00;;;;;;;22.92;49.54;96291.97;5095120;28;20016;-27
2023/10/18 02:11:52;;;;;;;3.35;1.77;;;;;;;22.80;49.89;96296.06;5095060;28;20024;-27
2023/10/18 02:14:17;;;;;;;10.52;2.58;;;;;;;22.96;49.23;96291.69;5094963;28;20020;-27
2023/10/18 02:16:45;;;;;;;3.58;1.88;;;;;;;22.83;49.79;96286.75;5095354;28;20412;-28
2023/10/18 02:19:13;;;;;;;5.07;2.10;;;;;;;22.86;49.77;96289.25;5102516;28;20111;-27
2023/10/18 02:21:40;;;;;;;5.70;2.25;;;;;;;22.79;49.85;96297.31;5094969;28;20028;-28
2023/10/18 02:24:07;;;;;;;5.18;2.20;;;;;;;22.88;49.63;96297.00;5094981;28;20020;-26
2023/10/18 02:26:33;;;;;;;5.28;1.65;;;;;;;22.88;49.46;96292.22;5094953;28;20348;-26
2023/10/18 02:29:00;;;;;;;9.48;2.00;;;;;;;22.84;49.80;96307.59;5094981;28;20024;-26
2023/10/18 02:31:28;;;;;;;6.88;2.10;;;;;;;22.92;49.49;96294.72;5095012;28;20035;-26
2023/10/18 02:33:56;;;;;;;3.70;2.03;;;;;;;23.01;49.00;96296.44;5094654;28;20141;-26
2023/10/18 02:36:21;;;;;;;4.68;2.10;;;;;;;22.71;50.04;96299.84;5095421;28;20089;-27
2023/10/18 02:38:49;;;;;;;5.70;2.13;;;;;;;22.91;49.69;96296.00;5095091;28;20460;-26
2023/10/18 02:41:17;;;;;;;4.13;2.20;;;;;;;22.77;49.84;96297.81;5094866;28;20020;-27
2023/10/18 02:43:45;;;;;;;5.57;2.42;;;;;;;22.84;49.29;96302.81;5094400;28;20411;-26
2023/10/18 02:46:16;;;;;;;5.40;2.28;;;;;;;22.86;49.62;96292.00;5094558;28;20378;-27
2023/10/18 02:48:43;;;;;;;6.82;2.70;;;;;;;22.98;49.26;96298.22;5094782;28;20039;-26
2023/10/18 02:51:11;;;;;;;3.60;1.80;;;;;;;23.01;49.35;96301.97;5094613;28;20046;-27
2023/10/18 02:53:41;;;;;;;4.32;2.10;;;;;;;22.84;49.71;96302.06;5094334;28;20028;-27
2023/10/18 02:56:09;;;;;;;4.68;2.33;;;;;;;22.89;49.78;96290.22;5094313;28;20023;-27
2023/10/18 02:58:37;;;;;;;4.93;2.95;;;;;;;22.84;49.39;96293.78;5094011;28;20103;-26
2023/10/18 03:01:08;;;;;;;6.50;3.78;;;;;;;22.71;49.82;96296.34;5094743;28;20045;-27
2023/10/18 03:03:33;;;;;;;8.15;4.05;;;;;;;22.66;50.10;96288.81;5094199;28;20476;-26
2023/10/18 03:06:06;;;;;;;11.23;5.03;;;;;;;22.42;50.69;96287.41;5094694;28;20027;-26
2023/10/18 03:08:32;;;;;;;7.80;4.72;;;;;;;22.49;50.52;96286.88;5094268;28;20020;-27
2023/10/18 03:11:01;;;;;;;8.35;4.57;;;;;;;22.62;50.56;96289.09;5093031;28;20495;-27
2023/10/18 03:13:27;;;;;;;8.80;4.25;;;;;;;22.69;49.83;96296.84;5093773;28;20459;-27
2023/10/18 03:16:08;;;;;;;11.55;4.85;;;;;;;22.60;50.48;96290.84;5093881;28;20020;-26
2023/10/18 03:18:37;;;;;;;8.13;4.50;;;;;;;22.61;50.27;96295.88;5093841;28;20016;-27
2023/10/18 03:21:08;;;;;;;7.18;4.70;;;;;;;22.49;50.64;96303.47;5101474;28;20023;-26
2023/10/18 03:23:44;;;;;;;7.55;5.00;;;;;;;22.48;50.34;96301.22;5092786;28;20026;-27
2023/10/18 03:26:11;;;;;;;7.43;4.63;;;;;;;22.46;50.81;96290.66;5093876;28;20102;-27
2023/10/18 03:28:40;;;;;;;10.32;4.70;;;;;;;22.42;50.64;96294.94;5093652;28;20024;-26
2023/10/18 03:31:21;;;;;;;9.50;4.40;;;;;;;22.50;50.11;96296.66;5093649;28;20107;-26
2023/10/18 03:33:54;;;;;;;10.38;4.30;;;;;;;22.41;50.67;96294.19;5093981;28;20020;-27
2023/10/18 03:36:26;;;;;;;6.07;3.70;;;;;;;22.53;49.69;96287.34;5093377;28;20017;-28
2023/10/18 03:38:54;;;;;;;9.00;3.67;;;;;;;22.65;49.50;96287.31;5093681;28;20047;-27
2023/10/18 03:41:25;;;;;;;7.43;2.60;;;;;;;22.55;49.67;96284.84;5093804;28;20020;-27
2023/10/18 03:43:58;;;;;;;5.47;2.60;;;;;;;;;;5101339;28;20024;-26
2023/10/18 03:46:38;;;;;;;6.60;2.60;;;;;;;22.61;49.58;96281.31;5093702;28;20027;-26
2023/10/18 03:49:10;;;;;;;9.18;2.40;;;;;;;22.70;49.25;96287.28;5093630;28;20024;-27
2023/10/18 03:51:37;;;;;;;5.65;2.75;;;;;;;22.57;49.26;96285.09;5093577;28;20048;-27
2023/10/18 03:54:04;;;;;;;6.80;2.95;;;;;;;22.54;49.70;96288.84;5100907;28;20028;-27
2023/10/18 03:56:36;;;;;;;5.38;2.63;;;;;;;22.42;49.90;96283.88;5093666;28;20115;-26
2023/10/18 03:59:21;;;;;;;5.90;3.47;;;;;;;22.50;49.81;96293.16;5100869;28;20368;-26
2023/10/18 04:02:05;;;;;;;5.55;3.58;;;;;;;22.58;49.20;96285.84;5093256;28;20115;-27
2023/10/18 04:04:35;;;;;;;8.07;3.67;;;;;;;22.47;49.54;96286.63;5093455;28;20020;-26
2023/10/18 04:07:16;;;;;;;7.93;3.72;;;;;;;22.46;49.66;96287.16;5093658;28;20020;-26
2023/10/18 04:10:11;;;;;;;6.07;3.70;;;;;;;22.60;49.12;96290.84;5097622;28;20020;-26
2023/10/18 04:12:40;;;;;;;6.75;3.65;;;;;;;22.50;49.16;96293.16;5097322;28;20051;-27
2023/10/18 04:15:21;;;;;;;6.57;3.65;;;;;;;22.43;49.23;96288.91;5097553;28;20482;-27
2023/10/18 04:17:49;;;;;;;8.40;3.22;;;;;;;22.57;48.97;96287.84;5097150;28;20391;-26
2023/10/18 04:22:47;;;;;;;6.18;2.90;;;;;;;22.60;49.18;96288.09;5097405;28;20024;-26
2023/10/18 04:25:29;;;;;;;8.90;3.13;;;;;;;22.75;48.59;96294.06;5097432;28;20031;-27
2023/10/18 04:27:59;;;;;;;11.05;3.08;;;;;;;22.69;48.87;96287.78;5097285;28;20027;-26
2023/10/18 04:30:32;;;;;;;7.20;3.63;;;;;;;22.71;48.29;96288.78;5097203;28;20032;-26
2023/10/18 04:33:08;;;;;;;4.50;2.20;;;;;;;22.48;48.81;96290.16;5096735;28;20020;-26
2023/10/18 04:35:36;;;;;;;4.28;1.88;;;;;;;22.52;48.99;96279.56;5097154;28;20050;-26
2023/10/18 04:38:20;;;;;;;5.15;1.63;;;;;;;22.62;48.43;96285.56;5097464;28;20020;-26
2023/10/18 04:40:53;;;;;;;2.85;1.50;;;;;;;22.52;48.90;96285.09;5104645;28;20023;-27
2023/10/18 04:43:22;;;;;;;6.38;1.92;;;;;;;22.75;48.34;96280.22;5097046;28;20016;-26
2023/10/18 04:46:07;;;;;;;3.42;1.40;;;;;;;22.60;48.72;96274.28;5104042;28;20035;-26
2023/10/18 04:51:27;;;;;;;4.07;1.98;;;;;;;22.47;48.70;96278.34;5096696;28;20027;-26
2023/10/18 04:53:58;;;;;;;4.43;1.98;;;;;;;22.56;48.67;96280.81;5096601;28;20015;-26
2023/10/18 04:56:45;;;;;;;4.65;1.80;;;;;;;22.40;49.33;96286.41;5103632;28;20039;-26
2023/10/18 05:04:24;;;;;;;5.25;1.55;;;;;;;22.57;48.98;96278.81;5096394;28;20020;-26
2023/10/18 05:06:54;;;;;;;4.95;1.67;;;;;;;22.59;48.60;96284.56;5096293;28;20042;-27
2023/10/18 05:09:31;;;;;;;4.97;2.03;;;;;;;22.52;49.22;96296.91;5096611;28;20023;-26
2023/10/18 05:11:57;;;;;;;4.03;2.28;;;;;;;22.56;49.02;96289.09;5096671;28;20085;-27
2023/10/18 05:14:35;;;;;;;4.70;2.83;;;;;;;22.56;49.04;96289.09;5096577;28;20465;-26
2023/10/18 05:17:22;;;;;;;4.75;2.92;;;;;;;22.56;49.38;96285.59;5096099;28;20028;-27
2023/10/18 05:19:49;;;;;;;5.13;2.88;;;;;;;22.52;49.39;96276.81;5100336;28;20024;-26
2023/10/18 05:22:25;;;;;;;6.07;3.35;;;;;;;22.56;49.02;96269.75;5096303;28;20024;-26
2023/10/18 05:27:45;;;;;;;6.78;2.33;;;;;;;22.62;49.01;96266.97;5096519;28;20459;-26
2023/10/18 05:30:25;;;;;;;5.50;2.00;;;;;;;22.61;49.07;96259.19;5096052;28;20028;-26
2023/10/18 05:33:03;;;;;;;3.60;2.40;;;;;;;22.67;48.90;96268.19;5095695;28;20052;-26
2023/10/18 05:35:33;;;;;;;6.80;2.13;;;;;;;22.71;48.78;96263.91;5095719;28;20032;-26
2023/10/18 05:37:59;;;;;;;5.18;1.83;;;;;;;22.74;48.30;96259.38;5096132;28;20020;-26
2023/10/18 05:43:12;;;;;;;8.02;1.85;;;;;;;22.63;48.73;96256.66;5095565;28;20024;-27
2023/10/18 05:45:40;;;;;;;4.38;2.15;;;;;;;22.56;49.18;96261.47;5096090;28;20077;-27
2023/10/18 05:48:13;;;;;;;4.00;1.70;;;;;;;22.57;49.06;96259.47;5095402;28;20020;-27
2023/10/18 05:50:39;;;;;;;3.22;1.75;;;;;;;22.46;49.22;96271.31;5094595;28;20024;-27
2023/10/18 05:53:11;;;;;;;5.65;2.08;;;;;;;22.60;49.43;96268.75;5095369;28;20086;-26
2023/10/18 05:55:40;;;;;;;4.07;2.00;;;;;;;22.58;49.75;96272.78;5096704;28;20030;-26
2023/10/18 05:58:05;;;;;;;3.83;2.50;;;;;;;22.58;49.36;96272.78;5095573;28;20046;-27
2023/10/18 06:00:35;;;;;;;4.50;2.20;;;;;;;22.50;49.91;96271.78;5095347;28;20024;-26
2023/10/18 06:03:01;;;;;;;5.32;2.80;;;;;;;22.61;49.87;96259.94;5095351;28;20019;-27
2023/10/18 06:05:35;;;;;;;5.68;2.70;;;;;;;22.57;49.70;96268.50;5094087;28;20020;-26
2023/10/18 06:08:01;;;;;;;6.40;2.63;;;;;;;;;;5095388;28;20030;-26
2023/10/18 06:10:27;;;;;;;6.18;3.03;;;;;;;22.49;50.29;96275.06;5099572;28;20440;-27
2023/10/18 06:13:05;;;;;;;10.70;3.58;;;;;;;22.56;50.31;96280.81;5097940;28;20027;-27
2023/10/18 06:15:34;;;;;;;4.40;3.10;;;;;;;22.54;50.34;96266.75;5095197;28;20012;-27
2023/10/18 06:18:00;;;;;;;5.78;3.20;;;;;;;22.61;50.53;96273.00;5095013;28;20031;-26
2023/10/18 06:20:30;;;;;;;6.95;3.28;;;;;;;22.44;51.48;96268.31;5097997;28;20382;-26
2023/10/18 06:25:57;;;;;;;7.55;3.22;;;;;;;22.58;51.38;96272.00;5085726;28;20501;-26
2023/10/18 06:28:26;;;;;;;6.38;3.72;;;;;;;22.61;51.03;96270.25;5094827;28;20405;-27
2023/10/18 06:30:53;;;;;;;6.88;3.60;;;;;;;22.60;51.36;96277.03;5093842;28;20024;-28
2023/10/18 06:33:19;;;;;;;6.95;3.20;;;;;;;22.49;51.49;96273.06;5094625;28;20081;-27
2023/10/18 06:35:52;;;;;;;5.63;2.92;;;;;;;22.57;51.60;96285.09;5101806;28;20020;-27
2023/10/18 06:38:24;;;;;;;6.93;3.53;;;;;;;22.68;51.38;96278.00;5101761;28;20110;-27
2023/10/18 06:41:00;;;;;;;4.45;2.85;;;;;;;22.42;51.94;96283.88;5094698;28;20020;-27
2023/10/18 06:43:29;;;;;;;6.38;3.15;;;;;;;22.32;52.37;96282.66;5094731;28;20096;-26
2023/10/18 06:45:54;;;;;;;7.88;3.38;;;;;;;22.37;52.44;96285.44;5094392;28;20012;-27
2023/10/18 06:48:22;;;;;;;6.15;3.47;;;;;;;22.42;52.56;96289.41;5094392;28;20035;-26
2023/10/18 06:50:48;;;;;;;5.13;3.33;;;;;;;22.54;52.13;96279.81;5094883;28;20024;-26
2023/10/18 06:53:15;;;;;;;5.80;3.90;;;;;;;22.43;52.26;96280.63;5094504;28;20070;-26
2023/10/18 06:55:44;;;;;;;6.65;3.55;;;;;;;22.38;52.74;96284.16;5094337;28;20024;-28
2023/10/18 07:00:54;;;;;;;8.90;4.20;;;;;;;22.47;52.53;96296.94;5094668;28;20035;-26
2023/10/18 07:03:27;;;;;;;6.97;3.92;;;;;;;22.54;52.43;96294.38;5094319;28;20050;-26
2023/10/18 07:05:54;;;;;;;;;;;;;;;22.56;52.13;96297.41;5094889;28;20020;-27
2023/10/18 07:08:20;;;;;;;9.00;3.80;;;;;;;22.43;52.80;96308.25;5094095;28;20359;-27
2023/10/18 07:10:54;;;;;;;7.90;3.60;;;;;;;22.59;52.17;96301.16;5094089;28;20111;-26
2023/10/18 07:13:38;;;;;;;6.50;3.55;;;;;;;22.56;52.46;96300.16;5101396;28;20016;-27
2023/10/18 07:16:06;;;;;;;5.88;4.05;;;;;;;22.75;51.33;96300.31;5094165;28;20020;-26
2023/10/18 07:18:35;;;;;;;7.05;3.47;;;;;;;22.61;52.15;96304.16;5094070;28;20020;-27
2023/10/18 07:21:09;;;;;;;5.88;3.40;;;;;;;22.39;52.70;96305.00;5094229;28;20055;-27
2023/10/18 07:23:36;;;;;;;6.93;3.42;;;;;;;22.68;52.16;96305.63;5094118;28;20153;-26
2023/10/18 07:26:13;;;;;;;5.10;3.20;;;;;;;22.68;52.34;96305.63;5094052;28;20020;-26
2023/10/18 07:28:40;;;;;;;7.63;4.40;;;;;;;22.56;52.25;96310.47;5093614;28;20055;-27
2023/10/18 07:31:10;;;;;;;7.93;3.28;;;;;;;22.69;51.93;96313.41;5093889;28;20024;-26
2023/10/18 07:33:40;;;;;;;5.60;3.42;;;;;;;22.62;52.08;96321.50;5102084;28;20494;-26
2023/10/18 07:36:09;;;;;;;5.03;3.60;;;;;;;22.73;51.81;96315.94;5099919;28;20115;-26
2023/10/18 07:38:55;;;;;;;9.07;3.65;;;;;;;22.55;52.50;96323.53;5094516;28;20038;-27
2023/10/18 07:41:26;;;;;;;6.78;3.30;;;;;;;22.55;52.44;96323.53;5093679;28;20027;-27
2023/10/18 07:43:52;;;;;;;5.72;3.83;;;;;;;22.76;51.82;96321.19;5093892;28;20022;-27
2023/10/18 07:46:18;;;;;;;6.57;3.10;;;;;;;22.74;51.98;96328.50;5094088;28;20376;-26
2023/10/18 07:48:47;;;;;;;4.78;3.30;;;;;;;22.72;52.06;96325.47;5094231;28;20051;-27
2023/10/18 07:51:23;;;;;;;6.65;3.47;;;;;;;22.74;52.07;96329.25;5093385;28;20027;-26
2023/10/18 07:53:51;;;;;;;9.88;3.90;;;;;;;22.75;52.07;96330.72;5093716;28;20024;-26
2023/10/18 07:56:16;;;;;;;6.25;4.30;;;;;;;22.72;52.07;96336.53;5093241;28;20020;-26
2023/10/18 07:58:49;;;;;;;6.65;3.90;;;;;;;22.77;52.18;96333.00;5093665;28;20032;-27
2023/10/18 08:01:32;;;;;;;7.70;4.45;;;;;;;22.79;52.22;96333.25;5093694;28;20015;-27
2023/10/18 08:04:00;;;;;;;9.07;3.97;;;;;;;22.65;52.55;96337.81;5093645;28;20073;-26
2023/10/18 08:06:26;;;;;;;9.27;4.20;;;;;;;22.78;52.18;96334.50;5093630;28;20016;-26
2023/10/18 08:08:52;;;;;;;6.47;4.22;;;;;;;22.90;51.99;96330.44;5093284;28;20081;-26
2023/10/18 08:11:18;;;;;;;7.97;3.92;;;;;;;22.84;51.94;96332.50;5093402;28;20020;-26
2023/10/18 08:13:47;;;;;;;8.05;3.42;;;;;;;22.95;51.58;96328.91;5093542;28;20070;-27
2023/10/18 08:16:26;;;;;;;6.30;3.70;;;;;;;22.91;52.07;96337.47;5100187;28;20030;-27
2023/10/18 08:18:59;;;;;;;8.40;3.70;;;;;;;22.85;52.15;96326.44;5093694;28;20027;-27
2023/10/18 08:21:37;;;;;;;;;;;;;;;22.89;51.67;96332.44;5101077;28;20016;-27
2023/10/18 08:24:37;;;;;;;5.53;3.00;;;;;;;22.95;51.17;96332.44;5093304;28;19953;-26
2023/10/18 08:27:00;;;;;;;4.17;2.47;;;;;;;22.87;51.49;96331.47;5091974;28;20032;-26
2023/10/18 08:29:27;;;;;;;6.03;2.80;;;;;;;22.86;51.25;96324.44;5100499;28;20050;-26
2023/10/18 08:32:04;;;;;;;6.82;2.85;;;;;;;22.77;51.79;96325.47;5093034;28;20044;-27
2023/10/18 08:34:31;;;;;;;5.03;2.95;;;;;;;22.88;51.32;96322.66;5093375;28;20153;-26
2023/10/18 08:37:04;;;;;;;10.45;3.33;;;;;;;22.76;51.19;96323.97;5093338;28;20035;-27
2023/10/18 08:39:30;;;;;;;6.60;3.03;;;;;;;22.84;51.36;96318.66;5092996;28;20095;-27
2023/10/18 08:42:14;;;;;;;4.00;3.05;;;;;;;23.06;50.74;96315.78;5097247;28;20409;-27
2023/10/18 08:44:40;;;;;;;4.20;2.70;;;;;;;22.93;51.06;96319.09;5094366;28;20035;-26
2023/10/18 08:49:35;;;;;;;7.50;2.75;;;;;;;22.62;51.85;96310.44;5092886;28;20020;-26
2023/10/18 08:52:11;;;;;;;5.45;2.83;;;;;;;22.74;51.51;96314.66;5092945;28;20044;-28
2023/10/18 08:54:40;;;;;;;3.80;2.53;;;;;;;22.86;51.31;96319.66;5095241;28;20016;-26
2023/10/18 08:57:09;;;;;;;4.90;2.22;;;;;;;23.00;51.10;96317.81;5103542;28;20028;-27
2023/10/18 08:59:48;;;;;;;4.25;2.30;;;;;;;22.99;51.37;96310.78;5096820;28;20026;-27
2023/10/18 09:04:54;;;;;;;6.13;2.28;;;;;;;22.79;52.28;96313.91;5096702;28;20051;-27
2023/10/18 09:10:12;;;;;;;4.90;2.10;;;;;;;22.91;51.69;96323.63;5096371;28;20030;-27
2023/10/18 09:17:54;;;;;;;5.35;2.67;;;;;;;22.85;51.97;96318.16;5096440;28;20023;-27
2023/10/18 09:20:25;;;;;;;5.88;2.95;;;;;;;22.93;52.09;96312.81;5096267;28;20047;-27
2023/10/18 09:22:50;;;;;;;6.00;2.20;;;;;;;22.88;51.91;96317.13;5096004;28;20028;-27
2023/10/18 09:25:16;;;;;;;4.85;2.20;;;;;;;22.77;52.50;96317.19;5096574;28;20069;-26
2023/10/18 09:27:41;;;;;;;6.72;2.28;;;;;;;23.04;51.89;96312.00;5096251;28;20020;-27
2023/10/18 09:30:10;;;;;;;6.38;2.45;;;;;;;23.05;51.97;96317.03;5095816;28;20039;-26
2023/10/18 09:32:36;;;;;;;3.42;2.10;;;;;;;23.11;52.36;96306.69;5103279;28;20059;-27
2023/10/18 09:35:08;;;;;;;5.03;2.30;;;;;;;23.02;52.52;96315.28;5096181;28;20028;-27
2023/10/18 09:37:38;;;;;;;4.10;2.30;;;;;;;23.05;52.77;96307.97;5096387;28;20387;-26
2023/10/18 09:40:04;;;;;;;6.75;2.10;;;;;;;23.00;52.58;96311.53;5095923;28;20016;-27
2023/10/18 09:42:30;;;;;;;9.43;2.63;;;;;;;23.04;52.22;96306.47;5102973;28;20422;-26
2023/10/18 09:44:55;;;;;;;4.70;2.35;;;;;;;22.79;53.22;96305.59;5095827;28;20110;-26
2023/10/18 09:47:23;;;;;;;5.97;2.50;;;;;;;23.02;52.48;96306.22;5095992;28;20104;-26
2023/10/18 09:50:06;;;;;;;5.03;2.40;;;;;;;23.11;51.92;96305.94;5095530;28;20024;-26
2023/10/18 09:52:34;;;;;;;5.70;2.23;;;;;;;22.95;52.13;96302.00;5095517;28;20550;-27
2023/10/18 09:55:01;;;;;;;4.25;2.30;;;;;;;23.18;51.28;96297.84;5103422;28;20627;-27
2023/10/18 09:57:35;;;;;;;6.57;2.40;;;;;;;22.39;53.22;96307.75;5095483;28;20026;-26
2023/10/18 10:00:13;;;;;;;5.75;2.35;;;;;;;23.02;50.94;96301.44;5095701;28;20483;-27
2023/10/18 10:02:39;;;;;;;7.07;3.22;;;;;;;22.98;51.36;96303.00;5095262;28;20471;-27
2023/10/18 10:05:12;;;;;;;4.82;2.30;;;;;;;23.21;50.20;96296.81;5094520;28;20023;-27
2023/10/18 10:07:41;;;;;;;6.22;3.22;;;;;;;23.12;50.69;96294.34;5095600;28;20101;-27
2023/10/18 10:10:08;;;;;;;8.18;2.60;;;;;;;22.93;50.79;96294.22;5096816;28;20019;-27
2023/10/18 10:12:35;;;;;;;2.88;2.10;;;;;;;22.79;50.95;96306.38;5100279;28;20540;-26
2023/10/18 10:15:02;;;;;;;3.08;1.92;;;;;;;22.94;50.75;96297.75;5095314;28;20364;-27
2023/10/18 10:17:31;;;;;;;3.90;2.20;;;;;;;23.14;50.66;96293.84;5095138;28;20020;-26
2023/10/18 10:20:10;;;;;;;5.63;2.80;;;;;;;22.98;51.59;96292.69;5095494;28;20467;-28
2023/10/18 10:22:44;;;;;;;4.40;2.38;;;;;;;23.20;50.75;96289.03;5095014;28;20028;-26
2023/10/18 10:25:18;;;;;;;5.10;2.92;;;;;;;23.10;51.77;96293.38;5095329;28;20089;-27
2023/10/18 10:27:49;;;;;;;6.75;3.40;;;;;;;23.12;51.91;96291.56;5095034;28;20467;-26
2023/10/18 10:32:45;;;;;;;5.82;2.72;;;;;;;22.98;52.58;96301.00;5095158;28;20438;-27
2023/10/18 10:35:15;;;;;;;4.82;2.83;;;;;;;23.12;52.61;96294.34;5094645;28;20020;-27
2023/10/18 10:37:51;;;;;;;4.63;2.70;;;;;;;22.98;52.80;96292.69;5109224;28;20016;-27
2023/10/18 10:40:39;;;;;;;4.68;2.38;;;;;;;22.98;53.16;96291.94;5095222;28;20456;-27
2023/10/18 10:43:18;;;;;;;5.38;2.88;;;;;;;22.99;54.27;96287.91;5094690;28;20028;-27
2023/10/18 10:48:18;;;;;;;6.82;2.60;;;;;;;23.28;53.39;96295.50;5094689;28;20020;-27
2023/10/18 10:50:53;;;;;;;6.40;3.00;;;;;;;23.15;53.94;96279.50;5094742;28;20024;-27
2023/10/18 10:53:31;;;;;;;5.88;2.97;;;;;;;23.14;54.15;96283.53;5094802;28;20067;-26
2023/10/18 10:55:57;;;;;;;6.68;2.90;;;;;;;23.04;54.33;96287.13;5094689;28;20056;-27
2023/10/18 10:58:29;;;;;;;6.05;2.90;;;;;;;23.07;54.35;96286.84;5094208;28;20423;-26
2023/10/18 11:01:08;;;;;;;6.33;2.60;;;;;;;23.16;54.42;96280.25;5094459;28;20024;-27
2023/10/18 11:03:55;;;;;;;7.43;2.60;;;;;;;23.17;54.60;96281.75;5094739;28;20737;-26
2023/10/18 11:06:23;;;;;;;4.80;2.75;;;;;;;23.18;54.57;96278.47;5094306;28;20063;-26
2023/10/18 11:08:51;;;;;;;5.60;2.97;;;;;;;23.10;55.65;96280.28;5093902;28;20112;-28
2023/10/18 11:11:20;;;;;;;7.07;3.75;;;;;;;23.11;55.46;96273.50;5101436;28;20055;-27
2023/10/18 11:13:46;;;;;;;6.47;4.03;;;;;;;23.05;55.86;96272.78;5094227;28;20024;-26
2023/10/18 11:16:12;;;;;;;7.15;3.72;;;;;;;23.13;55.87;96270.19;5093708;28;20039;-27
2023/10/18 11:18:42;;;;;;;8.82;4.10;;;;;;;23.12;56.31;96269.44;5094329;28;20028;-27
2023/10/18 11:21:41;;;;;;;5.43;2.80;;;;;;;23.01;57.59;96257.72;5094728;28;20069;-27
2023/10/18 11:24:10;;;;;;;7.88;3.40;;;;;;;23.20;57.39;96248.28;5091148;28;20036;-26
2023/10/18 11:26:40;;;;;;;8.57;2.25;;;;;;;23.15;57.62;96242.78;5093707;28;20055;-27
2023/10/18 11:29:07;;;;;;;5.28;2.88;;;;;;;23.24;57.30;96242.47;5093944;28;20035;-27
2023/10/18 11:31:33;;;;;;;5.60;2.38;;;;;;;23.21;57.36;96235.94;5093822;28;20024;-27
2023/10/18 11:34:07;;;;;;;6.90;2.60;;;;;;;23.08;58.03;96235.03;5094170;28;20023;-27
2023/10/18 11:36:39;;;;;;;4.80;2.30;;;;;;;23.21;58.11;96232.44;5094049;28;20055;-28
2023/10/18 11:39:07;;;;;;;4.97;2.13;;;;;;;23.27;57.77;96233.13;5093727;28;20031;-27
2023/10/18 11:41:37;;;;;;;3.83;1.90;;;;;;;23.10;58.62;96232.53;5093612;28;20016;-27
2023/10/18 11:44:06;;;;;;;4.18;2.08;;;;;;;23.17;58.27;96223.66;5093718;28;20027;-27
2023/10/18 11:46:51;;;;;;;5.55;2.33;;;;;;;23.00;58.74;96232.06;5093601;28;20016;-27
2023/10/18 11:49:19;;;;;;;5.82;2.03;;;;;;;23.07;58.65;96223.22;5094061;28;20020;-27
2023/10/18 11:51:50;;;;;;;3.47;2.33;;;;;;;23.16;58.06;96225.66;5093580;28;20572;-27
2023/10/18 11:54:32;;;;;;;4.43;2.47;;;;;;;23.25;58.27;96216.28;5093512;28;20061;-26
2023/10/18 11:56:59;;;;;;;4.15;2.50;;;;;;;23.23;58.60;96219.59;5093418;28;20020;-27
2023/10/18 11:59:25;;;;;;;5.20;2.72;;;;;;;23.19;59.09;96218.38;5093376;28;20452;-27
2023/10/18 12:01:58;;;;;;;3.65;2.40;;;;;;;23.09;58.75;96212.41;5094194;28;20031;-27
2023/10/18 12:04:27;;;;;;;4.97;2.38;;;;;;;23.12;59.02;96214.13;5093484;28;20042;-26
2023/10/18 12:06:57;;;;;;;3.22;2.70;;;;;;;23.23;58.01;96208.53;5100650;28;20062;-27
2023/10/18 12:11:50;;;;;;;3.53;2.45;;;;;;;23.31;57.02;96205.19;5093366;28;20016;-27
2023/10/18 12:14:15;;;;;;;5.57;2.85;;;;;;;23.32;57.21;96206.69;5093827;28;20019;-27
2023/10/18 12:16:43;;;;;;;5.65;2.78;;;;;;;23.23;57.54;96205.00;5100780;28;20430;-27
2023/10/18 12:19:10;;;;;;;3.72;3.08;;;;;;;23.26;58.50;96206.72;5099095;28;20058;-27
2023/10/18 12:21:38;;;;;;;3.90;2.42;;;;;;;23.02;58.65;96203.91;5093154;28;20068;-27
2023/10/18 12:24:04;;;;;;;6.63;2.72;;;;;;;23.23;58.53;96205.00;5093567;28;20032;-27
2023/10/18 12:26:34;;;;;;;11.05;3.35;;;;;;;23.15;58.35;96204.81;5093177;28;20028;-26
2023/10/18 12:29:03;;;;;;;4.88;3.15;;;;;;;22.96;59.01;96201.19;5094444;28;20030;-27
2023/10/18 12:31:29;;;;;;;6.90;3.15;;;;;;;23.04;59.03;96202.13;5097288;28;20475;-26